createdAt,value
2022-09-22T00:00:37.208Z,14.1
2022-09-22T00:01:44.782Z,14.1
2022-09-22T00:02:50.817Z,14.1
2022-09-22T00:03:57.970Z,14.1
2022-09-22T00:05:04.995Z,14.1
2022-09-22T00:06:12.169Z,14.1
2022-09-22T00:07:18.762Z,14.1
2022-09-22T00:08:25.799Z,14.1
2022-09-22T00:09:33.962Z,14.1
2022-09-22T00:10:40.111Z,14.1
2022-09-22T00:12:54.383Z,14.1
2022-09-22T00:14:00.872Z,14.1
2022-09-22T00:15:07.892Z,14.1
2022-09-22T00:16:15.043Z,14
2022-09-22T00:17:22.110Z,14.1
2022-09-22T00:18:28.714Z,14.1
2022-09-22T00:19:36.277Z,14.1
2022-09-22T00:20:42.903Z,14.1
2022-09-22T00:21:50.081Z,14.1
2022-09-22T00:22:57.120Z,14.1
2022-09-22T00:24:03.720Z,14.1
2022-09-22T00:25:10.841Z,14.1
2022-09-22T00:26:17.910Z,14.1
2022-09-22T00:27:25.031Z,14.1
2022-09-22T00:28:32.609Z,14
2022-09-22T00:29:38.809Z,14
2022-09-22T00:30:46.370Z,14
2022-09-22T00:31:52.993Z,14
2022-09-22T00:34:06.662Z,14
2022-09-22T00:35:13.731Z,14
2022-09-22T00:36:20.839Z,14
2022-09-22T00:37:27.928Z,13.9
2022-09-22T00:38:35.022Z,13.9
2022-09-22T00:39:42.130Z,14
2022-09-22T00:40:48.776Z,13.9
2022-09-22T00:41:55.790Z,13.9
2022-09-22T00:43:02.900Z,13.9
2022-09-22T00:44:10.004Z,13.9
2022-09-22T00:45:16.639Z,13.9
2022-09-22T00:46:23.782Z,13.9
2022-09-22T00:47:30.922Z,13.9
2022-09-22T00:48:37.978Z,13.9
2022-09-22T00:50:52.644Z,13.9
2022-09-22T00:51:58.742Z,13.9
2022-09-22T00:53:05.834Z,13.9
2022-09-22T00:54:12.916Z,13.9
2022-09-22T00:55:20.131Z,13.9
2022-09-22T00:56:26.701Z,13.9
2022-09-22T00:57:33.859Z,13.9
2022-09-22T00:58:40.937Z,13.9
2022-09-22T00:59:48.029Z,13.9
2022-09-22T01:00:55.104Z,13.9
2022-09-22T01:02:02.313Z,13.9
2022-09-22T01:03:08.805Z,13.9
2022-09-22T01:04:15.898Z,13.9
2022-09-22T01:05:23.003Z,13.9
2022-09-22T01:06:30.126Z,13.9
2022-09-22T01:07:36.702Z,13.9
2022-09-22T01:08:43.727Z,13.9
2022-09-22T01:09:50.869Z,13.9
2022-09-22T01:10:58.005Z,13.9
2022-09-22T01:12:05.040Z,13.9
2022-09-22T01:13:11.715Z,13.9
2022-09-22T01:16:32.991Z,13.9
2022-09-22T01:17:40.108Z,13.9
2022-09-22T01:18:46.691Z,13.9
2022-09-22T01:19:53.799Z,13.9
2022-09-22T01:21:00.901Z,13.9
2022-09-22T01:22:08.086Z,13.9
2022-09-22T01:23:15.092Z,13.9
2022-09-22T01:24:22.680Z,13.9
2022-09-22T01:25:28.843Z,13.9
2022-09-22T01:26:36.848Z,13.9
2022-09-22T01:27:43.002Z,13.9
2022-09-22T01:28:50.144Z,13.9
2022-09-22T01:29:56.703Z,13.9
2022-09-22T01:31:03.864Z,13.9
2022-09-22T01:32:12.011Z,13.8
2022-09-22T01:33:18.063Z,13.8
2022-09-22T01:34:25.096Z,13.8
2022-09-22T01:35:31.740Z,13.8
2022-09-22T01:36:38.844Z,13.8
2022-09-22T01:37:45.913Z,13.8
2022-09-22T01:38:53.013Z,13.8
2022-09-22T01:39:59.631Z,13.8
2022-09-22T01:41:06.731Z,13.7
2022-09-22T01:42:13.812Z,13.7
2022-09-22T01:43:21.801Z,13.6
2022-09-22T01:44:28.032Z,13.6
2022-09-22T01:45:35.111Z,13.6
2022-09-22T01:46:41.787Z,13.6
2022-09-22T01:47:48.842Z,13.6
2022-09-22T01:48:55.991Z,13.6
2022-09-22T01:50:03.027Z,13.6
2022-09-22T01:51:10.180Z,13.6
2022-09-22T01:52:17.233Z,13.6
2022-09-22T01:53:23.786Z,13.6
2022-09-22T01:54:30.934Z,13.6
2022-09-22T01:56:47.593Z,13.6
2022-09-22T01:57:51.771Z,13.6
2022-09-22T01:58:58.811Z,13.5
2022-09-22T02:00:07.102Z,13.5
2022-09-22T02:01:14.747Z,13.5
2022-09-22T02:02:19.798Z,13.5
2022-09-22T02:03:26.847Z,13.5
2022-09-22T02:04:33.793Z,13.5
2022-09-22T02:05:41.091Z,13.5
2022-09-22T02:06:48.078Z,13.5
2022-09-22T02:07:54.593Z,13.5
2022-09-22T02:09:01.774Z,13.5
2022-09-22T02:10:08.851Z,13.5
2022-09-22T02:11:16.065Z,13.5
2022-09-22T02:12:23.073Z,13.5
2022-09-22T02:13:30.702Z,13.5
2022-09-22T02:14:36.793Z,13.5
2022-09-22T02:15:43.894Z,13.5
2022-09-22T02:16:51.016Z,13.5
2022-09-22T02:17:58.177Z,13.5
2022-09-22T02:21:18.902Z,13.4
2022-09-22T02:22:26.057Z,13.4
2022-09-22T02:23:33.030Z,13.4
2022-09-22T02:24:39.641Z,13.4
2022-09-22T02:25:46.803Z,13.4
2022-09-22T02:26:53.911Z,13.4
2022-09-22T02:28:02.311Z,13.4
2022-09-22T02:29:08.128Z,13.4
2022-09-22T02:30:14.680Z,13.4
2022-09-22T02:31:21.910Z,13.4
2022-09-22T02:32:28.889Z,13.4
2022-09-22T02:33:38.227Z,13.4
2022-09-22T02:34:43.057Z,13.4
2022-09-22T02:35:49.701Z,13.4
2022-09-22T02:38:04.401Z,13.5
2022-09-22T02:39:11.071Z,13.5
2022-09-22T02:40:18.174Z,13.5
2022-09-22T02:41:24.684Z,13.5
2022-09-22T02:43:38.863Z,13.5
2022-09-22T02:44:46.018Z,13.5
2022-09-22T02:45:52.643Z,13.5
2022-09-22T02:46:59.734Z,13.5
2022-09-22T02:48:07.299Z,13.5
2022-09-22T02:49:13.913Z,13.5
2022-09-22T02:50:21.919Z,13.5
2022-09-22T02:51:27.587Z,13.5
2022-09-22T02:52:34.658Z,13.5
2022-09-22T02:53:41.850Z,13.5
2022-09-22T02:54:50.484Z,13.5
2022-09-22T02:55:56.008Z,13.5
2022-09-22T02:57:02.606Z,13.4
2022-09-22T02:58:09.675Z,13.5
2022-09-22T02:59:16.843Z,13.4
2022-09-22T03:00:24.000Z,13.4
2022-09-22T03:01:31.060Z,13.4
2022-09-22T03:02:38.141Z,13.4
2022-09-22T03:03:44.706Z,13.4
2022-09-22T03:04:51.922Z,13.4
2022-09-22T03:05:59.060Z,13.4
2022-09-22T03:07:05.988Z,13.4
2022-09-22T03:08:12.579Z,13.4
2022-09-22T03:09:19.744Z,13.4
2022-09-22T03:10:26.850Z,13.4
2022-09-22T03:11:33.940Z,13.4
2022-09-22T03:12:56.711Z,13.4
2022-09-22T03:13:47.653Z,13.3
2022-09-22T03:14:54.688Z,13.4
2022-09-22T03:17:08.968Z,13.4
2022-09-22T03:19:22.622Z,13.3
2022-09-22T03:20:29.744Z,13.3
2022-09-22T03:21:36.832Z,13.3
2022-09-22T03:23:51.083Z,13.3
2022-09-22T03:24:57.680Z,13.3
2022-09-22T03:26:04.703Z,13.3
2022-09-22T03:27:11.892Z,13.3
2022-09-22T03:28:18.941Z,13.3
2022-09-22T03:29:26.054Z,13.3
2022-09-22T03:30:32.808Z,13.3
2022-09-22T03:31:39.742Z,13.3
2022-09-22T03:32:46.898Z,13.3
2022-09-22T03:33:53.978Z,13.3
2022-09-22T03:35:01.090Z,13.3
2022-09-22T03:36:08.743Z,13.3
2022-09-22T03:37:14.773Z,13.3
2022-09-22T03:38:21.910Z,13.3
2022-09-22T03:39:29.003Z,13.3
2022-09-22T03:40:35.596Z,13.3
2022-09-22T03:41:43.182Z,13.3
2022-09-22T03:42:49.866Z,13.3
2022-09-22T03:45:09.263Z,13.2
2022-09-22T03:46:17.447Z,13.2
2022-09-22T03:47:17.704Z,13.2
2022-09-22T03:48:24.772Z,13.2
2022-09-22T03:49:31.894Z,13.2
2022-09-22T03:50:38.978Z,13.2
2022-09-22T03:51:47.470Z,13.2
2022-09-22T03:52:52.673Z,13.3
2022-09-22T03:54:00.052Z,13.2
2022-09-22T03:55:06.923Z,13.2
2022-09-22T03:56:14.014Z,13.2
2022-09-22T03:57:20.752Z,13.2
2022-09-22T03:58:27.713Z,13.2
2022-09-22T04:00:41.922Z,13.2
2022-09-22T04:01:49.464Z,13.2
2022-09-22T04:02:55.608Z,13.1
2022-09-22T04:04:02.648Z,13.1
2022-09-22T04:05:09.793Z,13.1
2022-09-22T04:06:16.948Z,13.1
2022-09-22T04:07:23.995Z,13.1
2022-09-22T04:08:33.944Z,13.1
2022-09-22T04:09:37.732Z,13.1
2022-09-22T04:11:51.972Z,13.1
2022-09-22T04:12:59.072Z,13.1
2022-09-22T04:14:06.054Z,13.1
2022-09-22T04:15:12.665Z,13
2022-09-22T04:16:19.902Z,13
2022-09-22T04:17:27.496Z,13
2022-09-22T04:18:34.539Z,13
2022-09-22T04:19:40.777Z,13
2022-09-22T04:20:47.763Z,13
2022-09-22T04:21:57.183Z,13
2022-09-22T04:23:02.010Z,13
2022-09-22T04:24:09.049Z,12.9
2022-09-22T04:25:15.820Z,12.9
2022-09-22T04:27:29.824Z,13
2022-09-22T04:28:37.000Z,12.9
2022-09-22T04:29:44.032Z,12.9
2022-09-22T04:30:50.754Z,12.9
2022-09-22T04:31:57.756Z,12.9
2022-09-22T04:33:04.821Z,12.9
2022-09-22T04:34:11.971Z,12.9
2022-09-22T04:35:18.522Z,12.9
2022-09-22T04:36:25.639Z,12.8
2022-09-22T04:37:32.722Z,12.8
2022-09-22T04:38:39.913Z,12.8
2022-09-22T04:39:46.993Z,12.8
2022-09-22T04:42:00.598Z,12.8
2022-09-22T04:43:07.745Z,12.7
2022-09-22T04:44:14.832Z,12.7
2022-09-22T04:45:22.454Z,12.7
2022-09-22T04:46:29.716Z,12.7
2022-09-22T04:47:35.676Z,12.6
2022-09-22T04:48:42.750Z,12.6
2022-09-22T04:49:49.882Z,12.6
2022-09-22T04:50:57.021Z,12.6
2022-09-22T04:52:04.085Z,12.6
2022-09-22T04:53:10.662Z,12.6
2022-09-22T04:54:17.901Z,12.6
2022-09-22T04:55:24.851Z,12.6
2022-09-22T04:56:31.981Z,12.6
2022-09-22T04:57:38.712Z,12.6
2022-09-22T04:58:46.745Z,12.6
2022-09-22T04:59:52.766Z,12.6
2022-09-22T05:00:59.972Z,12.6
2022-09-22T05:02:06.999Z,12.6
2022-09-22T05:03:17.479Z,12.6
2022-09-22T05:04:20.666Z,12.6
2022-09-22T05:05:27.803Z,12.6
2022-09-22T05:06:34.889Z,12.5
2022-09-22T05:07:41.982Z,12.5
2022-09-22T05:08:48.632Z,12.5
2022-09-22T05:09:55.806Z,12.5
2022-09-22T05:11:02.773Z,12.5
2022-09-22T05:12:09.946Z,12.5
2022-09-22T05:13:16.997Z,12.5
2022-09-22T05:15:30.750Z,12.5
2022-09-22T05:16:37.879Z,12.4
2022-09-22T05:17:44.904Z,12.4
2022-09-22T05:18:51.959Z,12.4
2022-09-22T05:19:58.640Z,12.4
2022-09-22T05:21:05.732Z,12.4
2022-09-22T05:22:12.784Z,12.4
2022-09-22T05:23:19.953Z,12.4
2022-09-22T05:24:26.996Z,12.4
2022-09-22T05:25:34.330Z,12.4
2022-09-22T05:26:40.773Z,12.4
2022-09-22T05:27:47.822Z,12.4
2022-09-22T05:28:54.921Z,12.4
2022-09-22T05:31:08.633Z,12.4
2022-09-22T05:32:15.792Z,12.4
2022-09-22T05:33:22.791Z,12.4
2022-09-22T05:34:29.945Z,12.4
2022-09-22T05:35:37.322Z,12.3
2022-09-22T05:36:47.572Z,12.3
2022-09-22T05:37:50.761Z,12.3
2022-09-22T05:40:05.501Z,12.3
2022-09-22T05:41:12.208Z,12.3
2022-09-22T05:43:25.721Z,12.2
2022-09-22T05:44:32.782Z,12.2
2022-09-22T05:45:39.995Z,12.2
2022-09-22T05:46:47.745Z,12.2
2022-09-22T05:47:53.577Z,12.2
2022-09-22T05:49:01.291Z,12.2
2022-09-22T05:50:07.817Z,12.2
2022-09-22T05:51:14.939Z,12.2
2022-09-22T05:52:22.035Z,12.2
2022-09-22T05:53:28.673Z,12.2
2022-09-22T05:54:35.731Z,12.2
2022-09-22T05:55:42.842Z,12.2
2022-09-22T05:56:49.939Z,12.2
2022-09-22T05:57:56.558Z,12.2
2022-09-22T05:59:03.636Z,12.2
2022-09-22T06:00:10.782Z,12.2
2022-09-22T06:01:17.983Z,12.2
2022-09-22T06:02:26.382Z,12.2
2022-09-22T06:03:31.567Z,12.2
2022-09-22T06:04:38.688Z,12.2
2022-09-22T06:05:45.735Z,12.2
2022-09-22T06:06:52.980Z,12.1
2022-09-22T06:08:00.021Z,12.1
2022-09-22T06:09:06.642Z,12.2
2022-09-22T06:10:13.651Z,12.1
2022-09-22T06:11:20.873Z,12.1
2022-09-22T06:12:27.882Z,12.1
2022-09-22T06:13:34.962Z,12.1
2022-09-22T06:14:42.181Z,12.1
2022-09-22T06:15:48.689Z,12.1
2022-09-22T06:16:55.802Z,12.1
2022-09-22T06:18:02.829Z,12.1
2022-09-22T06:19:09.972Z,12.1
2022-09-22T06:20:16.614Z,12.1
2022-09-22T06:21:24.207Z,12.1
2022-09-22T06:22:30.924Z,12.1
2022-09-22T06:23:42.625Z,12.1
2022-09-22T06:24:44.998Z,12.2
2022-09-22T06:25:51.557Z,12.2
2022-09-22T06:26:58.655Z,12.2
2022-09-22T06:28:05.833Z,12.2
2022-09-22T06:29:12.840Z,12.2
2022-09-22T06:30:20.012Z,12.2
2022-09-22T06:31:26.709Z,12.2
2022-09-22T06:32:33.648Z,12.2
2022-09-22T06:34:47.984Z,12.2
2022-09-22T06:35:54.999Z,12.2
2022-09-22T06:37:01.620Z,12.2
2022-09-22T06:38:08.703Z,12.2
2022-09-22T06:39:15.766Z,12.2
2022-09-22T06:40:22.975Z,12.2
2022-09-22T06:41:29.995Z,12.2
2022-09-22T06:42:36.629Z,12.2
2022-09-22T06:43:43.831Z,12.2
2022-09-22T06:44:50.832Z,12.3
2022-09-22T06:45:58.095Z,12.3
2022-09-22T06:47:05.015Z,12.3
2022-09-22T06:48:11.643Z,12.3
2022-09-22T06:49:18.700Z,12.3
2022-09-22T06:50:28.944Z,12.4
2022-09-22T06:51:32.932Z,12.4
2022-09-22T06:52:40.069Z,12.4
2022-09-22T06:53:51.119Z,12.4
2022-09-22T06:54:54.056Z,12.4
2022-09-22T06:56:00.818Z,12.4
2022-09-22T06:57:07.981Z,12.4
2022-09-22T06:58:14.495Z,12.4
2022-09-22T06:59:21.868Z,12.4
2022-09-22T07:00:28.727Z,12.4
2022-09-22T07:01:36.032Z,12.5
2022-09-22T07:02:43.498Z,12.5
2022-09-22T07:03:50.134Z,12.5
2022-09-22T07:04:56.671Z,12.5
2022-09-22T07:06:03.734Z,12.5
2022-09-22T07:08:18.172Z,12.5
2022-09-22T07:09:25.080Z,12.5
2022-09-22T07:10:31.751Z,12.5
2022-09-22T07:11:40.259Z,12.5
2022-09-22T07:12:45.836Z,12.5
2022-09-22T07:13:52.946Z,12.5
2022-09-22T07:14:59.630Z,12.5
2022-09-22T07:16:06.845Z,12.5
2022-09-22T07:17:13.762Z,12.5
2022-09-22T07:18:20.896Z,12.5
2022-09-22T07:19:27.946Z,12.5
2022-09-22T07:20:34.735Z,12.5
2022-09-22T07:21:41.682Z,12.5
2022-09-22T07:22:48.951Z,12.6
2022-09-22T07:23:55.863Z,12.6
2022-09-22T07:25:02.986Z,12.6
2022-09-22T07:26:10.105Z,12.6
2022-09-22T07:27:16.685Z,12.5
2022-09-22T07:28:24.013Z,12.6
2022-09-22T07:29:30.940Z,12.6
2022-09-22T07:30:38.044Z,12.6
2022-09-22T07:31:44.637Z,12.6
2022-09-22T07:32:51.693Z,12.6
2022-09-22T07:33:58.719Z,12.6
2022-09-22T07:35:05.900Z,12.6
2022-09-22T07:36:12.931Z,12.6
2022-09-22T07:38:26.691Z,12.6
2022-09-22T07:39:33.727Z,12.6
2022-09-22T07:40:40.936Z,12.6
2022-09-22T07:41:48.120Z,12.6
2022-09-22T07:42:54.543Z,12.6
2022-09-22T07:44:02.720Z,12.6
2022-09-22T07:45:08.729Z,12.6
2022-09-22T07:46:15.934Z,12.6
2022-09-22T07:47:23.003Z,12.6
2022-09-22T07:48:29.617Z,12.6
2022-09-22T07:49:36.703Z,12.6
2022-09-22T07:50:43.793Z,12.6
2022-09-22T07:51:50.944Z,12.6
2022-09-22T07:52:58.005Z,12.6
2022-09-22T07:54:04.679Z,12.6
2022-09-22T07:55:11.714Z,12.6
2022-09-22T07:56:19.347Z,12.6
2022-09-22T07:57:25.889Z,12.6
2022-09-22T07:58:33.014Z,12.6
2022-09-22T07:59:39.628Z,12.6
2022-09-22T08:00:46.727Z,12.6
2022-09-22T08:01:53.942Z,12.6
2022-09-22T08:03:00.862Z,12.6
2022-09-22T08:04:08.069Z,12.6
2022-09-22T08:05:14.550Z,12.6
2022-09-22T08:06:23.753Z,12.6
2022-09-22T08:07:28.803Z,12.6
2022-09-22T08:08:35.953Z,12.6
2022-09-22T08:09:43.014Z,12.6
2022-09-22T08:10:49.603Z,12.6
2022-09-22T08:11:56.810Z,12.6
2022-09-22T08:13:03.824Z,12.6
2022-09-22T08:14:10.951Z,12.6
2022-09-22T08:15:17.491Z,12.6
2022-09-22T08:16:24.667Z,12.6
2022-09-22T08:17:31.796Z,12.6
2022-09-22T08:18:38.981Z,12.7
2022-09-22T08:19:45.921Z,12.7
2022-09-22T08:20:52.473Z,12.7
2022-09-22T08:21:59.643Z,12.7
2022-09-22T08:23:06.934Z,12.7
2022-09-22T08:24:13.812Z,12.7
2022-09-22T08:26:27.512Z,12.7
2022-09-22T08:27:34.657Z,12.7
2022-09-22T08:28:41.910Z,12.8
2022-09-22T08:29:48.963Z,12.8
2022-09-22T08:30:55.929Z,12.8
2022-09-22T08:32:02.485Z,12.8
2022-09-22T08:33:09.628Z,12.8
2022-09-22T08:34:17.006Z,12.8
2022-09-22T08:36:30.986Z,12.7
2022-09-22T08:37:37.557Z,12.7
2022-09-22T08:38:44.633Z,12.7
2022-09-22T08:39:51.847Z,12.7
2022-09-22T08:42:05.454Z,12.8
2022-09-22T08:43:12.544Z,12.9
2022-09-22T08:44:19.654Z,12.9
2022-09-22T08:45:27.107Z,13
2022-09-22T08:46:33.910Z,13.1
2022-09-22T08:47:41.004Z,13.1
2022-09-22T08:48:47.654Z,13.2
2022-09-22T08:49:54.646Z,13.2
2022-09-22T08:51:01.899Z,13.2
2022-09-22T08:52:08.873Z,13.2
2022-09-22T08:53:15.430Z,13.3
2022-09-22T08:54:22.527Z,13.4
2022-09-22T08:55:29.669Z,13.4
2022-09-22T08:56:36.808Z,13.5
2022-09-22T08:57:43.907Z,13.5
2022-09-22T08:58:50.961Z,13.6
2022-09-22T08:59:58.132Z,13.6
2022-09-22T09:01:04.777Z,13.7
2022-09-22T09:02:11.962Z,13.8
2022-09-22T09:03:18.914Z,13.9
2022-09-22T09:04:25.461Z,13.8
2022-09-22T09:05:32.573Z,13.8
2022-09-22T09:07:46.843Z,13.8
2022-09-22T09:08:53.842Z,13.8
2022-09-22T09:10:00.503Z,13.8
2022-09-22T09:11:07.596Z,13.8
2022-09-22T09:12:15.772Z,13.8
2022-09-22T09:13:21.793Z,13.8
2022-09-22T09:14:28.932Z,13.8
2022-09-22T09:15:35.516Z,13.8
2022-09-22T09:16:42.587Z,13.9
2022-09-22T09:17:49.783Z,13.9
2022-09-22T09:18:56.825Z,13.9
2022-09-22T09:20:03.852Z,14
2022-09-22T09:21:11.044Z,14.1
2022-09-22T09:22:17.659Z,14.2
2022-09-22T09:23:24.765Z,14.2
2022-09-22T09:25:38.947Z,14.4
2022-09-22T09:26:48.181Z,14.4
2022-09-22T09:27:52.677Z,14.5
2022-09-22T09:29:10.894Z,14.5
2022-09-22T09:30:06.888Z,14.4
2022-09-22T09:31:13.973Z,14.4
2022-09-22T09:32:20.504Z,14.4
2022-09-22T09:33:27.754Z,14.5
2022-09-22T09:34:34.730Z,14.4
2022-09-22T09:35:42.209Z,14.6
2022-09-22T09:36:48.943Z,14.7
2022-09-22T09:37:55.461Z,14.8
2022-09-22T09:39:02.866Z,14.9
2022-09-22T09:40:09.696Z,14.9
2022-09-22T09:41:16.854Z,14.9
2022-09-22T09:42:23.888Z,15
2022-09-22T09:43:30.558Z,15.1
2022-09-22T09:46:51.940Z,15.4
2022-09-22T09:49:05.479Z,15.5
2022-09-22T09:50:12.669Z,15.6
2022-09-22T09:51:19.771Z,15.6
2022-09-22T09:52:27.002Z,15.6
2022-09-22T09:53:33.950Z,15.6
2022-09-22T09:54:40.601Z,15.6
2022-09-22T09:55:47.637Z,15.6
2022-09-22T09:56:54.743Z,15.7
2022-09-22T09:58:01.894Z,15.7
2022-09-22T09:59:09.114Z,15.8
2022-09-22T10:00:15.541Z,15.9
2022-09-22T10:01:22.696Z,16
2022-09-22T10:02:29.936Z,16
2022-09-22T10:04:43.547Z,15.9
2022-09-22T10:05:50.542Z,15.8
2022-09-22T10:07:01.510Z,15.7
2022-09-22T10:08:04.763Z,15.6
2022-09-22T10:09:11.840Z,15.5
2022-09-22T10:10:19.087Z,15.5
2022-09-22T10:11:25.573Z,15.5
2022-09-22T10:12:32.616Z,15.6
2022-09-22T10:14:47.325Z,15.7
2022-09-22T10:15:53.508Z,15.8
2022-09-22T10:17:00.551Z,16
2022-09-22T10:18:07.725Z,16.1
2022-09-22T10:19:14.723Z,16.2
2022-09-22T10:20:21.924Z,16.1
2022-09-22T10:21:29.138Z,16
2022-09-22T10:22:39.166Z,15.9
2022-09-22T10:23:42.706Z,15.9
2022-09-22T10:24:49.810Z,15.7
2022-09-22T10:25:56.906Z,15.6
2022-09-22T10:27:05.427Z,15.4
2022-09-22T10:28:10.781Z,15.3
2022-09-22T10:30:24.888Z,15
2022-09-22T10:31:31.968Z,14.9
2022-09-22T10:32:38.470Z,14.7
2022-09-22T10:33:45.619Z,14.6
2022-09-22T10:35:59.843Z,14.3
2022-09-22T10:37:06.884Z,14.3
2022-09-22T10:38:13.483Z,14.2
2022-09-22T10:39:20.585Z,14.2
2022-09-22T10:40:28.360Z,14.2
2022-09-22T10:42:41.953Z,14.2
2022-09-22T10:43:48.562Z,14.2
2022-09-22T10:44:55.676Z,14.2
2022-09-22T10:46:02.814Z,14.2
2022-09-22T10:47:09.835Z,14.2
2022-09-22T10:49:23.552Z,14.2
2022-09-22T10:50:30.603Z,14.2
2022-09-22T10:51:37.658Z,14.2
2022-09-22T10:52:44.851Z,14.3
2022-09-22T10:53:51.452Z,14.3
2022-09-22T10:54:58.601Z,14.3
2022-09-22T10:56:05.677Z,14.3
2022-09-22T10:57:12.848Z,14.3
2022-09-22T10:58:19.814Z,14.3
2022-09-22T10:59:26.995Z,14.3
2022-09-22T11:00:35.361Z,14.3
2022-09-22T11:01:40.851Z,14.3
2022-09-22T11:02:47.910Z,14.3
2022-09-22T11:03:54.787Z,14.3
2022-09-22T11:05:01.664Z,14.3
2022-09-22T11:06:08.699Z,14.3
2022-09-22T11:07:16.278Z,14.3
2022-09-22T11:08:22.849Z,14.3
2022-09-22T11:09:29.982Z,14.3
2022-09-22T11:11:43.487Z,14.4
2022-09-22T11:12:50.702Z,14.5
2022-09-22T11:13:57.808Z,14.4
2022-09-22T11:15:05.012Z,14.6
2022-09-22T11:16:11.435Z,14.6
2022-09-22T11:17:18.534Z,14.7
2022-09-22T11:18:25.755Z,14.9
2022-09-22T11:19:32.992Z,14.9
2022-09-22T11:20:40.005Z,15
2022-09-22T11:21:46.928Z,15
2022-09-22T11:22:53.496Z,15.1
2022-09-22T11:24:00.722Z,15.2
2022-09-22T11:25:07.941Z,15.2
2022-09-22T11:26:14.927Z,15.2
2022-09-22T11:27:21.578Z,15.2
2022-09-22T11:28:28.557Z,15.2
2022-09-22T11:29:35.643Z,15.2
2022-09-22T11:30:43.409Z,15.1
2022-09-22T11:32:56.441Z,14.9
2022-09-22T11:34:03.680Z,14.8
2022-09-22T11:35:10.643Z,14.7
2022-09-22T11:36:18.984Z,14.7
2022-09-22T11:37:25.058Z,14.6
2022-09-22T11:38:31.428Z,14.6
2022-09-22T11:39:38.565Z,14.5
2022-09-22T11:40:46.060Z,14.5
2022-09-22T11:41:52.926Z,14.5
2022-09-22T11:43:03.746Z,14.6
2022-09-22T11:45:13.759Z,14.7
2022-09-22T11:46:20.893Z,14.7
2022-09-22T11:47:27.958Z,14.7
2022-09-22T11:48:35.441Z,14.7
2022-09-22T11:49:41.457Z,14.6
2022-09-22T11:50:48.568Z,14.6
2022-09-22T11:53:02.778Z,14.6
2022-09-22T11:54:09.559Z,14.6
2022-09-22T11:55:16.463Z,14.6
2022-09-22T11:56:23.678Z,14.6
2022-09-22T11:57:30.856Z,14.6
2022-09-22T11:58:37.770Z,14.6
2022-09-22T11:59:44.513Z,14.6
2022-09-22T12:00:51.465Z,14.6
2022-09-22T12:01:58.627Z,14.6
2022-09-22T12:03:05.933Z,14.6
2022-09-22T12:04:12.916Z,14.6
2022-09-22T12:05:19.519Z,14.6
2022-09-22T12:06:26.480Z,14.6
2022-09-22T12:07:33.754Z,14.6
2022-09-22T12:08:41.623Z,14.6
2022-09-22T12:09:47.804Z,14.6
2022-09-22T12:10:55.050Z,14.6
2022-09-22T12:13:08.803Z,14.6
2022-09-22T12:14:16.065Z,14.6
2022-09-22T12:15:22.995Z,14.6
2022-09-22T12:16:29.384Z,14.7
2022-09-22T12:17:36.494Z,14.7
2022-09-22T12:18:43.899Z,14.7
2022-09-22T12:19:50.837Z,14.6
2022-09-22T12:20:58.050Z,14.6
2022-09-22T12:22:04.690Z,14.5
2022-09-22T12:23:11.505Z,14.5
2022-09-22T12:24:18.623Z,14.5
2022-09-22T12:25:45.106Z,14.6
2022-09-22T12:26:32.833Z,14.6
2022-09-22T12:27:39.404Z,14.7
2022-09-22T12:28:46.673Z,14.9
2022-09-22T12:29:53.825Z,14.9
2022-09-22T12:31:01.267Z,14.9
2022-09-22T12:32:07.956Z,14.9
2022-09-22T12:34:21.508Z,14.9
2022-09-22T12:35:30.893Z,14.9
2022-09-22T12:36:35.946Z,14.9
2022-09-22T12:37:43.039Z,15
2022-09-22T12:38:49.406Z,15
2022-09-22T12:41:03.930Z,15
2022-09-22T12:42:11.047Z,15
2022-09-22T12:43:18.118Z,15
2022-09-22T12:44:24.741Z,15
2022-09-22T12:45:31.804Z,15
2022-09-22T12:46:38.636Z,15
2022-09-22T12:47:45.830Z,15
2022-09-22T12:48:52.325Z,15
2022-09-22T12:49:59.434Z,15
2022-09-22T12:51:06.765Z,15
2022-09-22T12:52:13.836Z,14.9
2022-09-22T12:53:21.022Z,14.9
2022-09-22T12:54:27.477Z,14.9
2022-09-22T12:55:34.512Z,14.9
2022-09-22T12:56:41.729Z,14.8
2022-09-22T12:57:48.798Z,14.7
2022-09-22T12:58:55.762Z,14.8
2022-09-22T13:01:09.735Z,14.7
2022-09-22T13:02:16.650Z,14.6
2022-09-22T13:03:23.738Z,14.6
2022-09-22T13:04:31.816Z,14.6
2022-09-22T13:05:37.500Z,14.5
2022-09-22T13:06:44.521Z,14.5
2022-09-22T13:07:51.565Z,14.5
2022-09-22T13:08:58.765Z,14.5
2022-09-22T13:10:05.922Z,14.5
2022-09-22T13:11:12.466Z,14.6
2022-09-22T13:12:19.543Z,14.6
2022-09-22T13:13:26.653Z,14.6
2022-09-22T13:15:40.899Z,14.7
2022-09-22T13:16:47.933Z,14.8
2022-09-22T13:17:54.605Z,14.8
2022-09-22T13:19:01.706Z,14.9
2022-09-22T13:20:08.774Z,14.9
2022-09-22T13:21:16.137Z,15
2022-09-22T13:22:22.514Z,15
2022-09-22T13:23:29.604Z,15
2022-09-22T13:24:36.587Z,15
2022-09-22T13:25:43.777Z,14.9
2022-09-22T13:26:51.160Z,14.9
2022-09-22T13:27:57.520Z,14.7
2022-09-22T13:29:04.571Z,14.7
2022-09-22T13:30:11.592Z,14.6
2022-09-22T13:31:18.836Z,14.6
2022-09-22T13:32:25.917Z,14.6
2022-09-22T13:33:32.351Z,14.5
2022-09-22T13:34:39.618Z,14.5
2022-09-22T13:35:46.770Z,14.6
2022-09-22T13:36:55.330Z,14.6
2022-09-22T13:38:00.899Z,14.6
2022-09-22T13:39:07.483Z,14.6
2022-09-22T13:40:14.754Z,14.6
2022-09-22T13:41:21.737Z,14.7
2022-09-22T13:42:28.186Z,14.7
2022-09-22T13:43:35.392Z,14.8
2022-09-22T13:44:42.369Z,14.9
2022-09-22T13:45:49.709Z,14.9
2022-09-22T13:46:56.795Z,15
2022-09-22T13:48:07.537Z,15
2022-09-22T13:49:10.863Z,15
2022-09-22T13:50:20.013Z,15
2022-09-22T13:51:24.479Z,15
2022-09-22T13:52:31.831Z,15
2022-09-22T13:53:38.918Z,14.9
2022-09-22T13:54:45.519Z,14.9
2022-09-22T13:56:59.748Z,14.8
2022-09-22T13:58:06.879Z,14.7
2022-09-22T13:59:13.696Z,14.6
2022-09-22T14:00:20.638Z,14.6
2022-09-22T14:01:27.788Z,14.5
2022-09-22T14:02:34.927Z,14.4
2022-09-22T14:03:41.874Z,14.4
2022-09-22T14:04:48.741Z,14.4
2022-09-22T14:05:55.660Z,14.3
2022-09-22T14:07:02.695Z,14.3
2022-09-22T14:08:12.759Z,14.3
2022-09-22T14:09:16.973Z,14.3
2022-09-22T14:11:30.860Z,14.2
2022-09-22T14:12:37.756Z,14.2
2022-09-22T14:13:44.818Z,14.2
2022-09-22T14:14:52.011Z,14.2
2022-09-22T14:15:59.078Z,14.2
2022-09-22T14:17:05.523Z,14.2
2022-09-22T14:18:13.229Z,14.2
2022-09-22T14:19:19.622Z,14.2
2022-09-22T14:20:26.392Z,14.2
2022-09-22T14:21:33.725Z,14.2
2022-09-22T14:22:40.331Z,14.3
2022-09-22T14:23:48.754Z,14.2
2022-09-22T14:24:54.872Z,14.3
2022-09-22T14:26:01.650Z,14.3
2022-09-22T14:27:09.079Z,14.3
2022-09-22T14:29:22.641Z,14.3
2022-09-22T14:30:29.921Z,14.3
2022-09-22T14:31:37.208Z,14.4
2022-09-22T14:32:44.541Z,14.5
2022-09-22T14:33:50.573Z,14.6
2022-09-22T14:34:57.477Z,14.7
2022-09-22T14:36:04.862Z,14.7
2022-09-22T14:39:31.257Z,14.9
2022-09-22T14:40:32.569Z,15
2022-09-22T14:41:39.867Z,15
2022-09-22T14:42:46.948Z,15
2022-09-22T14:43:54.354Z,15
2022-09-22T14:45:00.343Z,15
2022-09-22T14:46:09.329Z,15
2022-09-22T14:47:14.772Z,15
2022-09-22T14:48:21.692Z,15
2022-09-22T14:49:28.572Z,15
2022-09-22T14:50:35.692Z,14.9
2022-09-22T14:51:42.794Z,14.9
2022-09-22T14:52:49.823Z,14.9
2022-09-22T14:53:59.467Z,14.9
2022-09-22T14:55:04.571Z,14.9
2022-09-22T14:56:10.548Z,14.8
2022-09-22T14:57:17.825Z,14.9
2022-09-22T14:58:24.574Z,14.9
2022-09-22T14:59:32.262Z,14.9
2022-09-22T15:00:39.063Z,14.9
2022-09-22T15:01:45.692Z,14.9
2022-09-22T15:02:52.985Z,14.9
2022-09-22T15:03:59.613Z,14.8
2022-09-22T15:05:07.744Z,14.8
2022-09-22T15:07:20.437Z,14.7
2022-09-22T15:08:27.573Z,14.7
2022-09-22T15:09:34.144Z,14.7
2022-09-22T15:10:41.940Z,14.7
2022-09-22T15:11:48.107Z,14.7
2022-09-22T15:12:55.211Z,14.6
2022-09-22T15:14:02.635Z,14.6
2022-09-22T15:15:09.417Z,14.6
2022-09-22T15:16:16.871Z,14.6
2022-09-22T15:17:23.350Z,14.6
2022-09-22T15:19:37.823Z,14.6
2022-09-22T15:20:44.400Z,14.6
2022-09-22T15:21:52.044Z,14.6
2022-09-22T15:22:58.398Z,14.5
2022-09-22T15:24:05.287Z,14.5
2022-09-22T15:25:12.638Z,14.5
2022-09-22T15:26:24.145Z,14.5
2022-09-22T15:27:26.539Z,14.5
2022-09-22T15:28:33.379Z,14.4
2022-09-22T15:29:40.612Z,14.4
2022-09-22T15:30:47.626Z,14.4
2022-09-22T15:31:53.923Z,14.4
2022-09-22T15:33:01.289Z,14.4
2022-09-22T15:35:15.950Z,14.4
2022-09-22T15:36:23.741Z,14.4
2022-09-22T15:37:29.891Z,14.4
2022-09-22T15:38:36.044Z,14.5
2022-09-22T15:39:43.126Z,14.5
2022-09-22T15:40:50.576Z,14.4
2022-09-22T15:41:57.557Z,14.4
2022-09-22T15:43:12.705Z,14.4
2022-09-22T15:44:12.097Z,14.3
2022-09-22T15:45:18.360Z,14.3
2022-09-22T15:46:25.432Z,14.2
2022-09-22T15:47:33.415Z,14.2
2022-09-22T15:48:39.984Z,14.2
2022-09-22T15:49:46.791Z,14.2
2022-09-22T15:50:53.884Z,14.1
2022-09-22T15:52:00.745Z,14.2
2022-09-22T15:53:07.931Z,14.2
2022-09-22T15:54:14.964Z,14.2
2022-09-22T15:55:21.572Z,14.2
2022-09-22T15:57:35.447Z,14.2
2022-09-22T15:58:42.774Z,14.3
2022-09-22T16:00:56.302Z,14.3